createdAt,value
2023-07-02T00:01:06.035Z,20.97
2023-07-02T00:03:32.547Z,21.08
2023-07-02T00:05:59.082Z,20.95
2023-07-02T00:08:25.564Z,20.96
2023-07-02T00:10:53.103Z,21.10
2023-07-02T00:13:19.672Z,21.18
2023-07-02T00:15:46.177Z,21.31
2023-07-02T00:18:12.661Z,21.32
2023-07-02T00:20:39.213Z,21.35
2023-07-02T00:23:05.715Z,21.19
2023-07-02T00:25:33.109Z,21.12
2023-07-02T00:27:59.628Z,21.11
2023-07-02T00:30:26.116Z,21.24
2023-07-02T00:32:52.741Z,21.25
2023-07-02T00:35:19.258Z,21.18
2023-07-02T00:37:46.677Z,21.36
2023-07-02T00:40:14.106Z,21.34
2023-07-02T00:42:41.533Z,21.26
2023-07-02T00:45:08.043Z,21.20
2023-07-02T00:47:34.609Z,21.06
2023-07-02T00:50:01.170Z,21.14
2023-07-02T00:52:27.702Z,21.03
2023-07-02T00:54:54.212Z,21.09
2023-07-02T00:57:20.832Z,21.29
2023-07-02T00:59:47.320Z,21.18
2023-07-02T01:02:13.834Z,21.15
2023-07-02T01:04:40.429Z,21.05
2023-07-02T01:07:06.967Z,20.90
2023-07-02T01:09:33.469Z,20.78
2023-07-02T01:12:00.947Z,20.59
2023-07-02T01:14:27.450Z,20.78
2023-07-02T01:16:53.964Z,20.83
2023-07-02T01:19:21.375Z,21.10
2023-07-02T01:21:47.871Z,21.09
2023-07-02T01:24:14.373Z,21.00
2023-07-02T01:26:40.871Z,20.99
2023-07-02T01:29:08.312Z,20.80
2023-07-02T01:31:34.885Z,20.75
2023-07-02T01:34:01.410Z,20.68
2023-07-02T01:36:27.911Z,20.96
2023-07-02T01:38:54.400Z,20.97
2023-07-02T01:41:21.818Z,20.79
2023-07-02T01:43:49.231Z,20.95
2023-07-02T01:46:16.751Z,20.94
2023-07-02T01:48:43.281Z,20.91
2023-07-02T01:51:09.777Z,21.08
2023-07-02T01:53:36.284Z,20.83
2023-07-02T01:56:03.723Z,20.83
2023-07-02T01:58:31.138Z,20.95
2023-07-02T02:00:57.711Z,20.82
2023-07-02T02:03:25.323Z,20.91
2023-07-02T02:05:52.779Z,20.91
2023-07-02T02:08:20.222Z,21.04
2023-07-02T02:10:46.934Z,20.87
2023-07-02T02:13:14.555Z,20.83
2023-07-02T02:15:41.112Z,20.95
2023-07-02T02:18:08.602Z,20.80
2023-07-02T02:20:35.108Z,20.86
2023-07-02T02:23:02.546Z,20.73
2023-07-02T02:25:29.052Z,20.67
2023-07-02T02:27:55.562Z,20.79
2023-07-02T02:30:22.062Z,20.80
2023-07-02T02:32:48.622Z,20.87
2023-07-02T02:35:16.096Z,20.85
2023-07-02T02:37:42.695Z,20.74
2023-07-02T02:40:10.167Z,20.60
2023-07-02T02:42:36.670Z,20.52
2023-07-02T02:45:04.098Z,20.48
2023-07-02T02:47:30.666Z,20.48
2023-07-02T02:49:57.155Z,20.42
2023-07-02T02:52:24.573Z,20.50
2023-07-02T02:54:52.015Z,20.45
2023-07-02T02:57:19.451Z,20.48
2023-07-02T02:59:45.966Z,20.50
2023-07-02T03:02:13.368Z,20.28
2023-07-02T03:04:39.913Z,20.15
2023-07-02T03:07:06.439Z,20.10
2023-07-02T03:09:32.937Z,20.06
2023-07-02T03:11:59.471Z,20.01
2023-07-02T03:14:26.925Z,20.04
2023-07-02T03:16:54.452Z,19.92
2023-07-02T03:19:22.049Z,19.99
2023-07-02T03:21:49.501Z,19.91
2023-07-02T03:24:15.982Z,20.07
2023-07-02T03:26:43.414Z,20.12
2023-07-02T03:29:09.928Z,20.09
2023-07-02T03:31:36.466Z,20.06
2023-07-02T03:34:03.000Z,20.14
2023-07-02T03:36:30.414Z,20.29
2023-07-02T03:38:56.890Z,20.17
2023-07-02T03:41:23.398Z,20.26
2023-07-02T03:43:49.907Z,20.13
2023-07-02T03:46:16.430Z,20.12
2023-07-02T03:48:42.952Z,20.14
2023-07-02T03:51:10.382Z,20.23
2023-07-02T03:53:36.865Z,20.15
2023-07-02T03:56:03.354Z,20.11
2023-07-02T03:58:29.859Z,20.09
2023-07-02T04:00:57.295Z,20.14
2023-07-02T04:03:23.838Z,20.16
2023-07-02T04:05:51.340Z,20.12
2023-07-02T04:08:17.834Z,20.28
2023-07-02T04:10:44.315Z,20.32
2023-07-02T04:13:10.822Z,20.19
2023-07-02T04:15:37.323Z,20.08
2023-07-02T04:18:04.857Z,20.03
2023-07-02T04:20:31.341Z,19.90
2023-07-02T04:22:58.760Z,20.02
2023-07-02T04:25:44.373Z,20.00
2023-07-02T04:28:12.630Z,19.91
2023-07-02T04:30:40.048Z,20.03
2023-07-02T04:33:06.515Z,20.10
2023-07-02T04:35:33.008Z,20.07
2023-07-02T04:37:59.496Z,20.26
2023-07-02T04:40:26.010Z,20.39
2023-07-02T04:42:53.429Z,20.59
2023-07-02T04:45:20.851Z,20.33
2023-07-02T04:47:48.316Z,20.44
2023-07-02T04:50:14.818Z,20.37
2023-07-02T04:52:42.225Z,20.52
2023-07-02T04:55:08.730Z,20.57
2023-07-02T04:57:36.113Z,20.66
2023-07-02T05:00:03.538Z,20.69
2023-07-02T05:02:30.955Z,20.84
2023-07-02T05:04:57.503Z,20.84
2023-07-02T05:07:25.000Z,20.92
2023-07-02T05:09:52.404Z,20.79
2023-07-02T05:12:18.906Z,20.94
2023-07-02T05:14:45.668Z,21.01
2023-07-02T05:17:12.160Z,21.06
2023-07-02T05:19:38.989Z,21.10
2023-07-02T05:22:06.378Z,21.14
2023-07-02T05:24:32.836Z,21.21
2023-07-02T05:27:00.244Z,21.00
2023-07-02T05:29:27.031Z,21.00
2023-07-02T05:31:54.305Z,21.03
2023-07-02T05:34:20.811Z,21.18
2023-07-02T05:36:47.585Z,21.23
2023-07-02T05:39:14.406Z,21.21
2023-07-02T05:41:41.926Z,21.12
2023-07-02T05:44:08.660Z,21.15
2023-07-02T05:46:35.483Z,21.06
2023-07-02T05:49:02.168Z,21.27
2023-07-02T05:51:29.012Z,21.25
2023-07-02T05:53:55.800Z,21.25
2023-07-02T05:56:23.415Z,21.25
2023-07-02T05:58:50.165Z,21.29
2023-07-02T06:01:16.843Z,21.36
2023-07-02T06:03:43.603Z,21.30
2023-07-02T06:06:10.609Z,21.32
2023-07-02T06:08:37.298Z,21.38
2023-07-02T06:11:04.689Z,21.35
2023-07-02T06:13:31.151Z,21.35
2023-07-02T06:15:57.595Z,21.30
2023-07-02T06:18:24.988Z,21.25
2023-07-02T06:20:51.858Z,21.34
2023-07-02T06:23:18.501Z,21.38
2023-07-02T06:25:45.906Z,21.47
2023-07-02T06:28:12.357Z,21.36
2023-07-02T06:30:39.758Z,21.39
2023-07-02T06:33:07.079Z,21.39
2023-07-02T06:35:33.538Z,21.39
2023-07-02T06:38:00.898Z,21.39
2023-07-02T06:40:27.402Z,21.46
2023-07-02T06:42:54.747Z,21.53
2023-07-02T06:45:22.070Z,21.64
2023-07-02T06:47:48.615Z,21.72
2023-07-02T06:50:16.233Z,21.75
2023-07-02T06:52:42.760Z,21.75
2023-07-02T06:55:09.239Z,21.78
2023-07-02T06:57:36.542Z,21.81
2023-07-02T07:00:03.887Z,21.84
2023-07-02T07:02:30.382Z,21.87
2023-07-02T07:04:57.781Z,21.90
2023-07-02T07:07:25.050Z,21.92
2023-07-02T07:09:52.340Z,21.91
2023-07-02T07:12:18.827Z,21.94
2023-07-02T07:14:45.327Z,21.94
2023-07-02T07:17:11.863Z,21.94
2023-07-02T07:19:39.151Z,21.94
2023-07-02T07:22:05.703Z,21.93
2023-07-02T07:24:32.208Z,21.92
2023-07-02T07:26:59.504Z,21.95
2023-07-02T07:29:27.824Z,21.93
2023-07-02T07:31:54.365Z,21.97
2023-07-02T07:34:21.675Z,21.97
2023-07-02T07:36:48.949Z,21.99
2023-07-02T07:39:16.216Z,22.01
2023-07-02T07:41:42.678Z,22.04
2023-07-02T07:44:09.146Z,22.05
2023-07-02T07:46:36.470Z,22.06
2023-07-02T07:49:03.021Z,22.06
2023-07-02T07:51:32.230Z,22.07
2023-07-02T07:54:01.473Z,22.07
2023-07-02T07:56:27.960Z,22.07
2023-07-02T07:58:54.376Z,22.09
2023-07-02T08:01:20.944Z,22.08
2023-07-02T08:03:47.445Z,22.11
2023-07-02T08:06:15.792Z,22.12
2023-07-02T08:08:42.260Z,22.11
2023-07-02T08:11:08.718Z,22.12
2023-07-02T08:13:35.164Z,22.15
2023-07-02T08:16:01.619Z,22.16
2023-07-02T08:18:28.055Z,22.16
2023-07-02T08:20:54.439Z,22.16
2023-07-02T08:23:20.869Z,22.19
2023-07-02T08:25:47.301Z,22.19
2023-07-02T08:28:13.698Z,22.20
2023-07-02T08:30:40.116Z,22.22
2023-07-02T08:33:06.645Z,22.22
2023-07-02T08:35:35.885Z,22.21
2023-07-02T08:38:02.339Z,22.22
2023-07-02T08:40:28.717Z,22.21
2023-07-02T08:42:55.978Z,22.23
2023-07-02T08:45:22.421Z,22.22
2023-07-02T08:47:49.697Z,22.22
2023-07-02T08:50:16.201Z,22.21
2023-07-02T08:52:43.508Z,22.22
2023-07-02T08:55:10.762Z,22.22
2023-07-02T08:57:37.157Z,22.22
2023-07-02T09:00:04.440Z,22.23
2023-07-02T09:02:31.850Z,22.24
2023-07-02T09:04:59.239Z,22.24
2023-07-02T09:07:25.967Z,22.24
2023-07-02T09:09:53.217Z,22.26
2023-07-02T09:12:20.588Z,22.30
2023-07-02T09:14:47.904Z,22.30
2023-07-02T09:17:14.400Z,22.31
2023-07-02T09:19:40.928Z,22.31
2023-07-02T09:22:07.361Z,22.32
2023-07-02T09:24:33.906Z,22.33
2023-07-02T09:27:01.152Z,22.33
2023-07-02T09:29:28.441Z,22.33
2023-07-02T09:34:28.060Z,22.33
2023-07-02T09:36:54.662Z,22.33
2023-07-02T09:39:21.076Z,22.34
2023-07-02T09:41:47.474Z,22.35
2023-07-02T09:44:14.819Z,22.36
2023-07-02T09:46:44.063Z,22.38
2023-07-02T09:49:10.510Z,22.40
2023-07-02T09:51:38.042Z,22.43
2023-07-02T09:54:04.590Z,22.44
2023-07-02T09:56:31.837Z,22.45
2023-07-02T09:58:58.231Z,22.44
2023-07-02T10:01:24.667Z,22.44
2023-07-02T10:03:51.993Z,22.43
2023-07-02T10:06:18.414Z,22.43
2023-07-02T10:08:44.794Z,22.44
2023-07-02T10:11:13.975Z,22.47
2023-07-02T10:13:40.359Z,22.46
2023-07-02T10:16:06.776Z,22.49
2023-07-02T10:18:34.284Z,22.51
2023-07-02T10:21:00.761Z,22.52
2023-07-02T10:23:27.194Z,22.54
2023-07-02T10:25:54.434Z,22.54
2023-07-02T10:28:21.692Z,22.55
2023-07-02T10:30:48.207Z,22.56
2023-07-02T10:33:15.800Z,22.56
2023-07-02T10:35:43.040Z,22.56
2023-07-02T10:38:10.329Z,22.56
2023-07-02T10:40:36.750Z,22.53
2023-07-02T10:43:03.125Z,22.53
2023-07-02T10:45:29.541Z,22.53
2023-07-02T10:47:55.959Z,22.50
2023-07-02T10:50:23.248Z,22.50
2023-07-02T10:52:49.630Z,22.50
2023-07-02T10:55:16.014Z,22.48
2023-07-02T10:57:42.385Z,22.48
2023-07-02T11:00:08.798Z,22.48
2023-07-02T11:02:35.282Z,22.48
2023-07-02T11:05:01.802Z,22.49
2023-07-02T11:07:28.281Z,22.49
2023-07-02T11:09:54.708Z,22.49
2023-07-02T11:12:21.951Z,22.49
2023-07-02T11:14:48.343Z,22.13
2023-07-02T11:17:15.657Z,22.13
2023-07-02T11:19:42.067Z,22.27
2023-07-02T11:22:08.491Z,22.10
2023-07-02T11:24:34.907Z,22.00
2023-07-02T11:27:01.331Z,21.99
2023-07-02T11:29:27.746Z,21.98
2023-07-02T11:31:54.240Z,22.09
2023-07-02T11:34:22.932Z,21.99
2023-07-02T11:36:51.640Z,22.07
2023-07-02T11:39:18.869Z,22.19
2023-07-02T11:41:45.247Z,22.12
2023-07-02T11:44:11.632Z,22.18
2023-07-02T11:46:38.036Z,22.03
2023-07-02T11:49:04.472Z,21.83
2023-07-02T11:51:30.918Z,21.95
2023-07-02T11:53:57.324Z,21.93
2023-07-02T11:56:23.730Z,21.98
2023-07-02T11:58:50.086Z,22.17
2023-07-02T12:01:17.433Z,22.01
2023-07-02T12:03:43.923Z,21.96
2023-07-02T12:06:11.371Z,22.17
2023-07-02T12:08:37.812Z,22.13
2023-07-02T12:11:04.222Z,22.23
2023-07-02T12:13:30.670Z,22.22
2023-07-02T12:15:57.095Z,22.13
2023-07-02T12:18:23.549Z,22.23
2023-07-02T12:20:50.792Z,22.32
2023-07-02T12:23:18.064Z,22.37
2023-07-02T12:25:45.342Z,22.36
2023-07-02T12:28:13.768Z,22.43
2023-07-02T12:30:40.484Z,22.35
2023-07-02T12:33:06.962Z,22.37
2023-07-02T12:35:33.383Z,22.38
2023-07-02T12:37:59.787Z,22.41
2023-07-02T12:40:26.175Z,22.40
2023-07-02T12:42:52.553Z,22.40
2023-07-02T12:45:21.433Z,22.42
2023-07-02T12:47:48.528Z,22.39
2023-07-02T12:50:15.814Z,22.42
2023-07-02T12:52:42.208Z,22.46
2023-07-02T12:55:09.583Z,22.49
2023-07-02T12:57:36.023Z,22.49
2023-07-02T13:00:02.489Z,22.53
2023-07-02T13:02:29.144Z,22.52
2023-07-02T13:04:55.693Z,22.56
2023-07-02T13:07:22.288Z,22.63
2023-07-02T13:09:48.704Z,22.65
2023-07-02T13:12:16.020Z,22.74
2023-07-02T13:14:42.394Z,22.88
2023-07-02T13:17:09.658Z,22.87
2023-07-02T13:19:36.056Z,22.87
2023-07-02T13:22:02.542Z,22.72
2023-07-02T13:24:28.931Z,22.69
2023-07-02T13:26:55.346Z,22.77
2023-07-02T13:29:21.722Z,22.78
2023-07-02T13:31:48.192Z,22.68
2023-07-02T13:34:15.610Z,22.69
2023-07-02T13:36:42.063Z,22.60
2023-07-02T13:39:09.305Z,22.59
2023-07-02T13:41:35.745Z,22.64
2023-07-02T13:44:02.218Z,22.66
2023-07-02T13:46:28.714Z,22.65
2023-07-02T13:48:55.172Z,22.56
2023-07-02T13:51:21.645Z,22.58
2023-07-02T13:53:50.364Z,22.55
2023-07-02T13:56:16.790Z,22.48
2023-07-02T13:58:44.423Z,22.46
2023-07-02T14:01:10.913Z,22.56
2023-07-02T14:03:37.427Z,22.57
2023-07-02T14:06:04.786Z,22.54
2023-07-02T14:08:31.297Z,22.56
2023-07-02T14:10:57.982Z,22.56
2023-07-02T14:13:24.375Z,22.58
2023-07-02T14:15:51.176Z,22.57
2023-07-02T14:18:17.873Z,22.60
2023-07-02T14:20:44.277Z,22.60
2023-07-02T14:23:10.689Z,22.64
2023-07-02T14:25:41.755Z,22.62
2023-07-02T14:28:08.820Z,22.67
2023-07-02T14:30:35.372Z,22.62
2023-07-02T14:33:04.639Z,22.64
2023-07-02T14:35:32.023Z,22.66
2023-07-02T14:37:58.426Z,22.68
2023-07-02T14:40:24.936Z,22.68
2023-07-02T14:42:51.341Z,22.67
2023-07-02T14:45:18.629Z,22.69
2023-07-02T14:47:45.045Z,22.66
2023-07-02T14:50:11.466Z,22.64
2023-07-02T14:52:37.853Z,22.67
2023-07-02T14:55:04.277Z,22.67
2023-07-02T14:57:30.670Z,22.64
2023-07-02T14:59:57.068Z,22.64
2023-07-02T15:02:23.491Z,22.64
2023-07-02T15:04:50.086Z,22.64
2023-07-02T15:07:16.556Z,22.63
2023-07-02T15:09:42.949Z,22.64
2023-07-02T15:12:10.222Z,22.64
2023-07-02T15:14:36.641Z,22.64
2023-07-02T15:17:03.044Z,22.65
2023-07-02T15:19:29.495Z,22.62
2023-07-02T15:21:55.890Z,22.62
2023-07-02T15:24:22.276Z,22.61
2023-07-02T15:26:48.675Z,22.62
2023-07-02T15:29:15.069Z,22.61
2023-07-02T15:31:41.514Z,22.64
2023-07-02T15:34:07.888Z,22.64
2023-07-02T15:36:34.285Z,22.64
2023-07-02T15:39:00.698Z,22.64
2023-07-02T15:41:27.091Z,22.65
2023-07-02T15:43:53.491Z,22.65
2023-07-02T15:46:20.802Z,22.66
2023-07-02T15:48:47.216Z,22.63
2023-07-02T15:51:13.609Z,22.65
2023-07-02T15:53:40.002Z,22.66
2023-07-02T15:56:06.433Z,22.67
2023-07-02T15:58:32.845Z,22.67
2023-07-02T16:00:59.206Z,22.70
2023-07-02T16:03:25.713Z,22.66
2023-07-02T16:05:55.430Z,22.66
2023-07-02T16:08:25.096Z,22.65
2023-07-02T16:10:51.504Z,22.67
2023-07-02T16:13:17.908Z,22.67
2023-07-02T16:15:44.294Z,22.67
2023-07-02T16:18:10.712Z,22.67
2023-07-02T16:20:39.891Z,22.70
2023-07-02T16:23:06.304Z,22.68
2023-07-02T16:25:32.722Z,22.68
2023-07-02T16:27:59.123Z,22.70
2023-07-02T16:30:25.502Z,22.69
2023-07-02T16:32:51.914Z,22.72
2023-07-02T16:35:19.254Z,22.73
2023-07-02T16:37:45.682Z,22.74
2023-07-02T16:40:12.069Z,22.66
2023-07-02T16:42:38.468Z,22.67
2023-07-02T16:45:05.718Z,22.67
2023-07-02T16:47:32.117Z,22.69
2023-07-02T16:49:58.672Z,22.70
2023-07-02T16:52:27.925Z,22.73
2023-07-02T16:54:54.345Z,22.73
2023-07-02T16:57:21.743Z,22.75
2023-07-02T16:59:49.156Z,22.75
2023-07-02T17:02:16.462Z,22.72
2023-07-02T17:04:42.951Z,22.75
2023-07-02T17:07:10.238Z,22.77
2023-07-02T17:09:36.729Z,22.73
2023-07-02T17:12:03.637Z,22.70
2023-07-02T17:14:30.044Z,22.74
2023-07-02T17:16:56.424Z,22.77
2023-07-02T17:19:23.846Z,22.83
2023-07-02T17:21:50.298Z,22.76
2023-07-02T17:24:16.779Z,22.81
2023-07-02T17:26:44.053Z,22.79
2023-07-02T17:29:10.494Z,22.83
2023-07-02T17:31:36.963Z,22.78
2023-07-02T17:34:03.359Z,22.79
2023-07-02T17:36:29.734Z,22.75
2023-07-02T17:38:56.946Z,22.78
2023-07-02T17:41:24.218Z,22.75
2023-07-02T17:43:50.686Z,22.79
2023-07-02T17:46:17.982Z,22.74
2023-07-02T17:48:44.364Z,22.69
2023-07-02T17:51:10.797Z,22.72
2023-07-02T17:53:37.166Z,22.70
2023-07-02T17:56:04.429Z,22.72
2023-07-02T17:58:30.923Z,22.71
2023-07-02T18:00:57.658Z,22.71
2023-07-02T18:03:24.250Z,22.69
2023-07-02T18:05:51.088Z,22.69
2023-07-02T18:08:17.797Z,22.75
2023-07-02T18:10:44.182Z,22.78
2023-07-02T18:13:10.555Z,22.73
2023-07-02T18:15:36.938Z,22.76
2023-07-02T18:18:03.392Z,22.85
2023-07-02T18:20:29.830Z,22.81
2023-07-02T18:22:56.249Z,22.70
2023-07-02T18:25:22.625Z,22.63
2023-07-02T18:27:49.033Z,22.72
2023-07-02T18:30:16.635Z,22.68
2023-07-02T18:32:43.096Z,22.70
2023-07-02T18:35:10.461Z,22.85
2023-07-02T18:37:36.846Z,22.66
2023-07-02T18:40:03.201Z,22.66
2023-07-02T18:42:29.590Z,22.63
2023-07-02T18:44:55.982Z,22.66
2023-07-02T18:47:22.544Z,22.62
2023-07-02T18:49:49.040Z,22.59
2023-07-02T18:52:16.352Z,22.57
2023-07-02T18:54:42.773Z,22.55
2023-07-02T18:57:10.079Z,22.45
2023-07-02T18:59:36.563Z,22.48
2023-07-02T19:02:03.004Z,22.54
2023-07-02T19:04:29.589Z,22.44
2023-07-02T19:06:56.107Z,22.43
2023-07-02T19:09:22.464Z,22.39
2023-07-02T19:11:48.884Z,22.34
2023-07-02T19:14:16.165Z,22.31
2023-07-02T19:16:42.684Z,22.34
2023-07-02T19:19:09.972Z,22.45
2023-07-02T19:21:36.355Z,22.41
2023-07-02T19:24:02.759Z,22.44
2023-07-02T19:26:31.104Z,22.41
2023-07-02T19:28:57.579Z,22.43
2023-07-02T19:31:24.017Z,22.42
2023-07-02T19:33:50.527Z,22.37
2023-07-02T19:36:17.849Z,22.44
2023-07-02T19:38:44.222Z,22.31
2023-07-02T19:41:12.495Z,22.32
2023-07-02T19:43:39.779Z,22.35
2023-07-02T19:46:07.137Z,22.23
2023-07-02T19:48:33.514Z,22.23
2023-07-02T19:51:00.764Z,22.22
2023-07-02T19:53:27.158Z,22.19
2023-07-02T19:55:53.579Z,22.20
2023-07-02T19:58:20.835Z,22.32
2023-07-02T20:00:47.244Z,22.28
2023-07-02T20:03:14.565Z,22.35
2023-07-02T20:05:41.137Z,22.31
2023-07-02T20:08:07.656Z,22.31
2023-07-02T20:10:34.041Z,22.30
2023-07-02T20:13:00.436Z,22.27
2023-07-02T20:15:26.961Z,22.23
2023-07-02T20:17:53.493Z,22.25
2023-07-02T20:20:19.958Z,22.22
2023-07-02T20:22:46.388Z,22.25
2023-07-02T20:25:43.854Z,22.31
2023-07-02T20:27:59.999Z,22.27
2023-07-02T20:30:26.385Z,22.27
2023-07-02T20:32:52.800Z,22.25
2023-07-02T20:35:19.229Z,22.31
2023-07-02T20:37:45.719Z,22.31
2023-07-02T20:40:13.207Z,22.26
2023-07-02T20:42:39.825Z,22.25
2023-07-02T20:45:06.310Z,22.28
2023-07-02T20:47:32.844Z,22.23
2023-07-02T20:50:02.101Z,22.08
2023-07-02T20:52:29.383Z,22.07
2023-07-02T20:54:55.830Z,22.13
2023-07-02T20:57:22.238Z,22.08
2023-07-02T20:59:48.632Z,22.06
2023-07-02T21:02:15.894Z,22.08
2023-07-02T21:04:42.304Z,22.19
2023-07-02T21:07:09.587Z,22.06
2023-07-02T21:09:35.992Z,22.05
2023-07-02T21:12:02.398Z,21.95
2023-07-02T21:14:28.790Z,22.11
2023-07-02T21:16:55.327Z,21.99
2023-07-02T21:19:21.844Z,22.16
2023-07-02T21:21:48.248Z,21.97
2023-07-02T21:24:14.645Z,21.97
2023-07-02T21:26:41.014Z,22.02
2023-07-02T21:29:07.375Z,21.98
2023-07-02T21:31:33.923Z,21.94
2023-07-02T21:34:00.319Z,21.97
2023-07-02T21:36:26.691Z,21.99
2023-07-02T21:38:53.093Z,21.82
2023-07-02T21:41:20.345Z,21.87
2023-07-02T21:43:46.767Z,21.75
2023-07-02T21:46:16.023Z,21.78
2023-07-02T21:48:42.437Z,21.52
2023-07-02T21:51:09.678Z,21.65
2023-07-02T21:53:36.076Z,21.55
2023-07-02T21:56:02.516Z,21.69
2023-07-02T21:58:28.905Z,21.85
2023-07-02T22:00:56.166Z,21.77
2023-07-02T22:03:22.543Z,21.85
2023-07-02T22:05:49.180Z,21.79
2023-07-02T22:08:16.749Z,21.86
2023-07-02T22:10:43.980Z,21.64
2023-07-02T22:13:11.255Z,21.69
2023-07-02T22:15:37.750Z,21.64
2023-07-02T22:18:04.296Z,21.61
2023-07-02T22:20:31.768Z,21.81
2023-07-02T22:22:59.209Z,21.81
2023-07-02T22:25:25.685Z,21.66
2023-07-02T22:27:52.207Z,21.68
2023-07-02T22:30:18.592Z,21.59
2023-07-02T22:32:45.093Z,21.56
2023-07-02T22:35:13.430Z,21.58
2023-07-02T22:37:40.852Z,21.64
2023-07-02T22:40:07.277Z,21.54
2023-07-02T22:42:33.714Z,21.64
2023-07-02T22:45:00.985Z,21.48
2023-07-02T22:47:30.210Z,21.55
2023-07-02T22:49:57.506Z,21.39
2023-07-02T22:52:23.888Z,21.47
2023-07-02T22:54:53.074Z,21.46
2023-07-02T22:57:22.294Z,21.48
2023-07-02T22:59:48.679Z,21.55
2023-07-02T23:02:15.994Z,21.34
2023-07-02T23:04:42.495Z,21.54
2023-07-02T23:07:08.954Z,21.38
2023-07-02T23:09:36.203Z,21.48
2023-07-02T23:12:02.648Z,21.36
2023-07-02T23:14:29.015Z,21.56
2023-07-02T23:16:55.453Z,21.37
2023-07-02T23:19:21.817Z,21.46
2023-07-02T23:21:48.236Z,21.38
2023-07-02T23:24:15.486Z,21.28
2023-07-02T23:26:42.736Z,21.27
2023-07-02T23:29:09.994Z,21.40
2023-07-02T23:31:36.522Z,21.46
2023-07-02T23:34:02.935Z,21.42
2023-07-02T23:36:29.335Z,21.56
2023-07-02T23:38:55.711Z,21.49
2023-07-02T23:41:24.108Z,21.28
2023-07-02T23:43:51.378Z,21.35
2023-07-02T23:46:17.893Z,21.23
2023-07-02T23:48:44.349Z,21.25
2023-07-02T23:51:10.735Z,21.34
2023-07-02T23:53:37.161Z,21.35
2023-07-02T23:56:04.459Z,21.31
2023-07-02T23:58:32.743Z,21.31
